createdAt,value
2023-04-13T00:01:16.298Z,99342.00
2023-04-13T00:03:46.485Z,99348.00
2023-04-13T00:06:16.645Z,99344.00
2023-04-13T00:08:46.867Z,99331.00
2023-04-13T00:11:17.961Z,99338.00
2023-04-13T00:13:47.958Z,99347.00
2023-04-13T00:16:21.416Z,99342.00
2023-04-13T00:18:52.521Z,99336.00
2023-04-13T00:21:23.437Z,99338.00
2023-04-13T00:23:53.465Z,99344.00
2023-04-13T00:26:25.765Z,99345.00
2023-04-13T00:28:56.004Z,99352.00
2023-04-13T00:31:29.640Z,99336.00
2023-04-13T00:33:59.800Z,99340.00
2023-04-13T00:36:29.882Z,99343.00
2023-04-13T00:39:00.052Z,99353.00
2023-04-13T00:41:30.037Z,99351.00
2023-04-13T00:44:01.111Z,99355.00
2023-04-13T00:46:34.031Z,99361.00
2023-04-13T00:49:04.895Z,99378.00
2023-04-13T00:51:36.240Z,99383.00
2023-04-13T00:54:06.652Z,99369.00
2023-04-13T00:56:37.805Z,99375.00
2023-04-13T00:59:08.811Z,99390.00
2023-04-13T01:01:46.903Z,99383.00
2023-04-13T01:04:18.869Z,99376.00
2023-04-13T01:06:58.917Z,99400.00
2023-04-13T01:09:37.225Z,99388.00
2023-04-13T01:12:14.959Z,99389.00
2023-04-13T01:14:53.088Z,99403.00
2023-04-13T01:17:30.562Z,99405.00
2023-04-13T01:20:12.041Z,99397.00
2023-04-13T01:22:46.145Z,99419.00
2023-04-13T01:25:32.544Z,99416.00
2023-04-13T01:28:08.237Z,99419.00
2023-04-13T01:30:39.581Z,99433.00
2023-04-13T01:33:10.402Z,99444.00
2023-04-13T01:35:41.831Z,99444.00
2023-04-13T01:38:12.503Z,99423.00
2023-04-13T01:40:44.840Z,99447.00
2023-04-13T01:43:18.508Z,99459.00
2023-04-13T01:45:57.506Z,99469.00
2023-04-13T01:48:34.521Z,99461.00
2023-04-13T01:51:10.952Z,99456.00
2023-04-13T01:53:45.993Z,99473.00
2023-04-13T01:56:19.444Z,99475.00
2023-04-13T01:59:00.863Z,99485.00
2023-04-13T02:01:30.833Z,99479.00
2023-04-13T02:04:02.003Z,99482.00
2023-04-13T02:06:32.582Z,99484.00
2023-04-13T02:09:06.543Z,99485.00
2023-04-13T02:11:37.692Z,99488.00
2023-04-13T02:14:10.467Z,99490.00
2023-04-13T02:16:40.593Z,99495.00
2023-04-13T02:19:10.835Z,99487.00
2023-04-13T02:21:42.262Z,99503.00
2023-04-13T02:24:12.268Z,99497.00
2023-04-13T02:26:42.405Z,99496.00
2023-04-13T02:29:15.102Z,99494.00
2023-04-13T02:31:45.375Z,99494.00
2023-04-13T02:34:15.420Z,99490.00
2023-04-13T02:36:46.596Z,99503.00
2023-04-13T02:39:16.730Z,99493.00
2023-04-13T02:41:47.637Z,99478.00
2023-04-13T02:44:21.301Z,99482.00
2023-04-13T02:46:51.584Z,99473.00
2023-04-13T02:49:21.770Z,99474.00
2023-04-13T02:51:52.357Z,99482.00
2023-04-13T02:54:22.405Z,99486.00
2023-04-13T02:56:52.361Z,99488.00
2023-04-13T02:59:25.725Z,99494.00
2023-04-13T03:01:58.730Z,99470.00
2023-04-13T03:04:29.266Z,99468.00
2023-04-13T03:06:59.317Z,99482.00
2023-04-13T03:09:29.337Z,99491.00
2023-04-13T03:11:59.312Z,99498.00
2023-04-13T03:14:33.311Z,99498.00
2023-04-13T03:17:03.404Z,99501.00
2023-04-13T03:19:35.678Z,99506.00
2023-04-13T03:22:05.751Z,99518.00
2023-04-13T03:24:36.020Z,99529.00
2023-04-13T03:27:06.532Z,99532.00
2023-04-13T03:29:39.310Z,99530.00
2023-04-13T03:32:09.623Z,99536.00
2023-04-13T03:34:44.248Z,99541.00
2023-04-13T03:37:15.085Z,99543.00
2023-04-13T03:39:45.173Z,99545.00
2023-04-13T03:42:15.483Z,99532.00
2023-04-13T03:44:48.027Z,99539.00
2023-04-13T03:47:18.241Z,99542.00
2023-04-13T03:49:48.315Z,99547.00
2023-04-13T03:52:18.409Z,99548.00
2023-04-13T03:54:48.416Z,99548.00
2023-04-13T03:57:18.536Z,99547.00
2023-04-13T03:59:51.778Z,99549.00
2023-04-13T04:02:22.227Z,99560.00
2023-04-13T04:04:52.889Z,99560.00
2023-04-13T04:07:23.349Z,99565.00
2023-04-13T04:09:53.526Z,99567.00
2023-04-13T04:12:23.765Z,99570.00
2023-04-13T04:14:56.546Z,99575.00
2023-04-13T04:17:26.668Z,99581.00
2023-04-13T04:19:56.953Z,99576.00
2023-04-13T04:22:30.245Z,99589.00
2023-04-13T04:25:02.058Z,99592.00
2023-04-13T04:27:38.103Z,99597.00
2023-04-13T04:30:14.107Z,99599.00
2023-04-13T04:32:44.226Z,99605.00
2023-04-13T04:35:15.050Z,99605.00
2023-04-13T04:37:45.236Z,99607.00
2023-04-13T04:40:16.181Z,99614.00
2023-04-13T04:42:46.121Z,99609.00
2023-04-13T04:45:18.805Z,99624.00
2023-04-13T04:47:50.053Z,99630.00
2023-04-13T04:50:20.538Z,99633.00
2023-04-13T04:52:50.573Z,99627.00
2023-04-13T04:55:20.827Z,99618.00
2023-04-13T04:57:50.840Z,99619.00
2023-04-13T05:00:26.433Z,99630.00
2023-04-13T05:02:57.939Z,99620.00
2023-04-13T05:05:28.118Z,99622.00
2023-04-13T05:07:58.392Z,99607.00
2023-04-13T05:10:29.218Z,99610.00
2023-04-13T05:12:59.401Z,99604.00
2023-04-13T05:15:32.134Z,99613.00
2023-04-13T05:18:02.244Z,99624.00
2023-04-13T05:20:32.232Z,99618.00
2023-04-13T05:23:03.266Z,99620.00
2023-04-13T05:25:33.256Z,99618.00
2023-04-13T05:28:03.290Z,99625.00
2023-04-13T05:30:36.000Z,99648.00
2023-04-13T05:33:08.211Z,99654.00
2023-04-13T05:35:39.435Z,99656.00
2023-04-13T05:38:09.446Z,99651.00
2023-04-13T05:40:39.552Z,99641.00
2023-04-13T05:43:09.557Z,99645.00
2023-04-13T05:45:42.283Z,99654.00
2023-04-13T05:48:12.376Z,99652.00
2023-04-13T05:50:43.240Z,99668.00
2023-04-13T05:53:13.207Z,99664.00
2023-04-13T05:55:48.035Z,99664.00
2023-04-13T05:58:19.149Z,99665.00
2023-04-13T06:00:52.180Z,99663.00
2023-04-13T06:03:22.906Z,99674.00
2023-04-13T06:05:53.528Z,99681.00
2023-04-13T06:08:24.145Z,99681.00
2023-04-13T06:10:54.203Z,99693.00
2023-04-13T06:13:24.660Z,99689.00
2023-04-13T06:15:57.664Z,99698.00
2023-04-13T06:18:28.500Z,99704.00
2023-04-13T06:20:59.860Z,99710.00
2023-04-13T06:23:29.872Z,99720.00
2023-04-13T06:25:59.893Z,99722.00
2023-04-13T06:28:31.703Z,99716.00
2023-04-13T06:31:04.579Z,99707.00
2023-04-13T06:33:34.901Z,99711.00
2023-04-13T06:36:06.008Z,99723.00
2023-04-13T06:38:36.051Z,99733.00
2023-04-13T06:41:07.045Z,99734.00
2023-04-13T06:43:37.236Z,99739.00
2023-04-13T06:46:10.091Z,99740.00
2023-04-13T06:48:40.199Z,99744.00
2023-04-13T06:51:11.987Z,99758.00
2023-04-13T06:53:42.269Z,99760.00
2023-04-13T06:56:12.301Z,99764.00
2023-04-13T06:58:42.312Z,99766.00
2023-04-13T07:01:16.464Z,99771.00
2023-04-13T07:03:46.898Z,99767.00
2023-04-13T07:06:19.767Z,99764.00
2023-04-13T07:08:49.771Z,99770.00
2023-04-13T07:11:19.811Z,99765.00
2023-04-13T07:13:49.820Z,99761.00
2023-04-13T07:16:22.470Z,99762.00
2023-04-13T07:18:52.530Z,99768.00
2023-04-13T07:21:22.491Z,99755.00
2023-04-13T07:23:52.945Z,99757.00
2023-04-13T07:26:23.044Z,99747.00
2023-04-13T07:28:53.135Z,99763.00
2023-04-13T07:31:26.785Z,99766.00
2023-04-13T07:33:56.868Z,99764.00
2023-04-13T07:36:27.106Z,99763.00
2023-04-13T07:38:57.430Z,99761.00
2023-04-13T07:41:27.600Z,99767.00
2023-04-13T07:43:57.800Z,99770.00
2023-04-13T07:46:30.661Z,99782.00
2023-04-13T07:49:00.966Z,99795.00
2023-04-13T07:51:32.500Z,99793.00
2023-04-13T07:54:02.855Z,99786.00
2023-04-13T07:56:33.802Z,99788.00
2023-04-13T07:59:04.098Z,99783.00
2023-04-13T08:01:37.037Z,99798.00
2023-04-13T08:04:07.434Z,99800.00
2023-04-13T08:06:38.452Z,99801.00
2023-04-13T08:09:09.673Z,99806.00
2023-04-13T08:11:39.768Z,99810.00
2023-04-13T08:14:11.808Z,99798.00
2023-04-13T08:16:44.470Z,99811.00
2023-04-13T08:19:14.533Z,99818.00
2023-04-13T08:21:44.728Z,99826.00
2023-04-13T08:24:14.916Z,99823.00
2023-04-13T08:26:45.742Z,99830.00
2023-04-13T08:29:19.312Z,99830.00
2023-04-13T08:31:52.691Z,99827.00
2023-04-13T08:34:22.800Z,99831.00
2023-04-13T08:36:55.285Z,99848.00
2023-04-13T08:39:25.334Z,99848.00
2023-04-13T08:41:55.326Z,99837.00
2023-04-13T08:44:26.592Z,99837.00
2023-04-13T08:46:59.594Z,99839.00
2023-04-13T08:49:31.184Z,99832.00
2023-04-13T08:52:04.984Z,99845.00
2023-04-13T08:54:35.424Z,99841.00
2023-04-13T08:57:06.843Z,99846.00
2023-04-13T08:59:37.887Z,99834.00
2023-04-13T09:02:12.323Z,99844.00
2023-04-13T09:04:45.325Z,99851.00
2023-04-13T09:07:22.235Z,99844.00
2023-04-13T09:09:54.143Z,99843.00
2023-04-13T09:12:24.345Z,99841.00
2023-04-13T09:14:54.645Z,99837.00
2023-04-13T09:17:32.475Z,99836.00
2023-04-13T09:20:17.152Z,99836.00
2023-04-13T09:22:47.354Z,99848.00
2023-04-13T09:25:25.554Z,99852.00
2023-04-13T09:27:56.232Z,99850.00
2023-04-13T09:30:28.404Z,99859.00
2023-04-13T09:33:08.621Z,99863.00
2023-04-13T09:35:40.063Z,99863.00
2023-04-13T09:38:11.934Z,99871.00
2023-04-13T09:40:54.524Z,99867.00
2023-04-13T09:43:24.787Z,99870.00
2023-04-13T09:45:55.092Z,99872.00
2023-04-13T09:48:27.727Z,99858.00
2023-04-13T09:51:06.667Z,99858.00
2023-04-13T09:53:46.619Z,99860.00
2023-04-13T09:56:17.375Z,99867.00
2023-04-13T09:58:51.728Z,99873.00
2023-04-13T10:01:21.878Z,99880.00
2023-04-13T10:03:55.388Z,99881.00
2023-04-13T10:06:25.845Z,99881.00
2023-04-13T10:08:55.953Z,99874.00
2023-04-13T10:11:26.531Z,99868.00
2023-04-13T10:14:01.137Z,99872.00
2023-04-13T10:17:05.709Z,99875.00
2023-04-13T10:19:45.114Z,99877.00
2023-04-13T10:22:15.715Z,99876.00
2023-04-13T10:24:46.583Z,99873.00
2023-04-13T10:27:19.252Z,99876.00
2023-04-13T10:29:50.189Z,99878.00
2023-04-13T10:32:25.110Z,99876.00
2023-04-13T10:34:58.503Z,99880.00
2023-04-13T10:37:30.774Z,99881.00
2023-04-13T10:40:14.461Z,99881.00
2023-04-13T10:42:52.494Z,99882.00
2023-04-13T10:45:26.499Z,99889.00
2023-04-13T10:47:58.804Z,99895.00
2023-04-13T10:50:31.759Z,99890.00
2023-04-13T10:53:05.169Z,99886.00
2023-04-13T10:55:36.836Z,99892.00
2023-04-13T10:58:19.179Z,99900.00
2023-04-13T11:00:51.037Z,99906.00
2023-04-13T11:03:21.809Z,99911.00
2023-04-13T11:06:02.608Z,99903.00
2023-04-13T11:08:33.974Z,99900.00
2023-04-13T11:11:03.967Z,99909.00
2023-04-13T11:13:35.551Z,99913.00
2023-04-13T11:16:06.849Z,99911.00
2023-04-13T11:18:37.029Z,99919.00
2023-04-13T11:21:18.046Z,99923.00
2023-04-13T11:23:55.617Z,99920.00
2023-04-13T11:26:36.427Z,99913.00
2023-04-13T11:29:07.523Z,99910.00
2023-04-13T11:31:42.503Z,99900.00
2023-04-13T11:34:14.211Z,99910.00
2023-04-13T11:36:49.942Z,99914.00
2023-04-13T11:39:20.426Z,99919.00
2023-04-13T11:41:50.745Z,99927.00
2023-04-13T11:44:21.086Z,99925.00
2023-04-13T11:46:51.721Z,99924.00
2023-04-13T11:49:22.104Z,99919.00
2023-04-13T11:51:55.284Z,99926.00
2023-04-13T11:54:26.152Z,99926.00
2023-04-13T11:56:57.821Z,99935.00
2023-04-13T11:59:29.082Z,99926.00
2023-04-13T12:02:03.247Z,99930.00
2023-04-13T12:04:41.502Z,99932.00
2023-04-13T12:07:18.788Z,99923.00
2023-04-13T12:15:17.240Z,99937.00
2023-04-13T12:17:59.980Z,99941.00
2023-04-13T12:20:39.750Z,99930.00
2023-04-13T12:23:24.991Z,99945.00
2023-04-13T12:26:00.494Z,99933.00
2023-04-13T12:28:34.719Z,99927.00
2023-04-13T12:31:10.235Z,99936.00
2023-04-13T12:33:41.247Z,99935.00
2023-04-13T12:36:13.644Z,99931.00
2023-04-13T12:38:46.681Z,99932.00
2023-04-13T12:41:17.091Z,99935.00
2023-04-13T12:43:47.372Z,99937.00
2023-04-13T12:46:17.922Z,99933.00
2023-04-13T12:48:48.514Z,99931.00
2023-04-13T12:51:19.375Z,99931.00
2023-04-13T12:53:52.362Z,99929.00
2023-04-13T12:56:22.622Z,99940.00
2023-04-13T12:58:52.830Z,99939.00
2023-04-13T13:01:23.254Z,99942.00
2023-04-13T13:03:53.698Z,99939.00
2023-04-13T13:06:23.835Z,99926.00
2023-04-13T13:08:57.462Z,99928.00
2023-04-13T13:11:27.923Z,99929.00
2023-04-13T13:13:58.113Z,99925.00
2023-04-13T13:16:28.635Z,99926.00
2023-04-13T13:18:58.915Z,99916.00
2023-04-13T13:21:29.632Z,99929.00
2023-04-13T13:24:02.790Z,99935.00
2023-04-13T13:26:51.723Z,99932.00
2023-04-13T13:29:24.703Z,99926.00
2023-04-13T13:31:55.180Z,99932.00
2023-04-13T13:34:26.323Z,99927.00
2023-04-13T13:36:57.241Z,99921.00
2023-04-13T13:39:30.867Z,99924.00
2023-04-13T13:42:02.399Z,99938.00
2023-04-13T13:44:35.138Z,99939.00
2023-04-13T13:47:07.190Z,99944.00
2023-04-13T13:49:37.559Z,99944.00
2023-04-13T13:52:08.357Z,99938.00
2023-04-13T13:54:41.467Z,99935.00
2023-04-13T13:57:11.490Z,99936.00
2023-04-13T13:59:41.769Z,99934.00
2023-04-13T14:02:12.080Z,99925.00
2023-04-13T14:04:42.326Z,99924.00
2023-04-13T14:07:12.494Z,99929.00
2023-04-13T14:09:45.386Z,99921.00
2023-04-13T14:12:15.605Z,99929.00
2023-04-13T14:14:45.798Z,99940.00
2023-04-13T14:17:16.047Z,99941.00
2023-04-13T14:19:46.351Z,99952.00
2023-04-13T14:22:17.007Z,99946.00
2023-04-13T14:24:51.915Z,99953.00
2023-04-13T14:27:21.856Z,99945.00
2023-04-13T14:29:51.860Z,99938.00
2023-04-13T14:32:21.864Z,99940.00
2023-04-13T14:34:53.540Z,99950.00
2023-04-13T14:37:24.561Z,99958.00
2023-04-13T14:39:58.054Z,99954.00
2023-04-13T14:42:29.907Z,99946.00
2023-04-13T14:45:00.204Z,99947.00
2023-04-13T14:47:30.306Z,99959.00
2023-04-13T14:50:01.115Z,99956.00
2023-04-13T14:52:31.104Z,99951.00
2023-04-13T14:55:04.401Z,99953.00
2023-04-13T14:57:35.537Z,99952.00
2023-04-13T15:00:08.064Z,99950.00
2023-04-13T15:02:40.020Z,99969.00
2023-04-13T15:05:12.613Z,99968.00
2023-04-13T15:07:43.491Z,99968.00
2023-04-13T15:10:16.766Z,99975.00
2023-04-13T15:12:48.339Z,99968.00
2023-04-13T15:15:19.321Z,99972.00
2023-04-13T15:17:49.680Z,99968.00
2023-04-13T15:20:20.179Z,99976.00
2023-04-13T15:22:50.677Z,99979.00
2023-04-13T15:25:24.523Z,99977.00
2023-04-13T15:27:56.024Z,99993.00
2023-04-13T15:30:31.292Z,99998.00
2023-04-13T15:33:04.684Z,99992.00
2023-04-13T15:35:38.308Z,99980.00
2023-04-13T15:38:09.647Z,99992.00
2023-04-13T15:40:43.530Z,99988.00
2023-04-13T15:43:13.903Z,99985.00
2023-04-13T15:45:44.078Z,99997.00
2023-04-13T15:48:14.454Z,99997.00
2023-04-13T15:50:44.640Z,100003.00
2023-04-13T15:53:15.072Z,100005.00
2023-04-13T15:55:48.835Z,100000.00
2023-04-13T15:58:19.835Z,100004.00
2023-04-13T16:00:50.891Z,100012.00
2023-04-13T16:03:22.081Z,100024.00
2023-04-13T16:05:53.355Z,100028.00
2023-04-13T16:08:23.695Z,100033.00
2023-04-13T16:10:57.165Z,100031.00
2023-04-13T16:13:41.402Z,100029.00
2023-04-13T16:16:18.539Z,100025.00
2023-04-13T16:18:49.577Z,100035.00
2023-04-13T16:21:20.271Z,100030.00
2023-04-13T16:23:50.829Z,100038.00
2023-04-13T16:26:24.167Z,100033.00
2023-04-13T16:28:54.685Z,100038.00
2023-04-13T16:31:24.986Z,100040.00
2023-04-13T16:33:55.870Z,100041.00
2023-04-13T16:36:27.425Z,100041.00
2023-04-13T16:38:58.535Z,100040.00
2023-04-13T16:41:31.754Z,100042.00
2023-04-13T16:44:02.724Z,100048.00
2023-04-13T16:46:33.340Z,100056.00
2023-04-13T16:49:03.918Z,100059.00
2023-04-13T16:51:35.628Z,100061.00
2023-04-13T16:54:11.679Z,100062.00
2023-04-13T16:56:45.028Z,100070.00
2023-04-13T16:59:15.506Z,100077.00
2023-04-13T17:01:46.144Z,100080.00
2023-04-13T17:04:16.898Z,100079.00
2023-04-13T17:06:47.569Z,100087.00
2023-04-13T17:09:17.736Z,100082.00
2023-04-13T17:11:50.528Z,100082.00
2023-04-13T17:14:20.685Z,100084.00
2023-04-13T17:16:52.008Z,100086.00
2023-04-13T17:19:23.712Z,100098.00
2023-04-13T17:21:54.370Z,100093.00
2023-04-13T17:24:25.525Z,100094.00
2023-04-13T17:26:58.371Z,100093.00
2023-04-13T17:29:28.816Z,100095.00
2023-04-13T17:31:59.627Z,100092.00
2023-04-13T17:34:30.032Z,100089.00
2023-04-13T17:37:00.861Z,100100.00
2023-04-13T17:39:31.750Z,100097.00
2023-04-13T17:42:04.605Z,100102.00
2023-04-13T17:44:35.027Z,100092.00
2023-04-13T17:47:05.274Z,100094.00
2023-04-13T17:49:36.863Z,100101.00
2023-04-13T17:52:07.430Z,100105.00
2023-04-13T17:54:37.775Z,100114.00
2023-04-13T17:57:10.719Z,100103.00
2023-04-13T17:59:41.256Z,100114.00
2023-04-13T18:02:11.350Z,100110.00
2023-04-13T18:04:41.790Z,100103.00
2023-04-13T18:07:11.938Z,100101.00
2023-04-13T18:09:42.113Z,100107.00
2023-04-13T18:12:14.905Z,100105.00
2023-04-13T18:14:45.114Z,100106.00
2023-04-13T18:17:15.600Z,100109.00
2023-04-13T18:19:45.633Z,100110.00
2023-04-13T18:22:15.928Z,100107.00
2023-04-13T18:24:46.180Z,100111.00
2023-04-13T18:27:19.000Z,100105.00
2023-04-13T18:29:49.517Z,100105.00
2023-04-13T18:32:19.797Z,100107.00
2023-04-13T18:34:50.082Z,100124.00
2023-04-13T18:37:20.653Z,100128.00
2023-04-13T18:39:52.099Z,100143.00
2023-04-13T18:42:24.876Z,100129.00
2023-04-13T18:44:54.942Z,100135.00
2023-04-13T18:47:25.990Z,100128.00
2023-04-13T18:49:57.125Z,100137.00
2023-04-13T18:52:28.746Z,100146.00
2023-04-13T18:54:58.750Z,100148.00
2023-04-13T18:57:31.318Z,100162.00
2023-04-13T19:00:01.542Z,100169.00
2023-04-13T19:02:31.678Z,100164.00
2023-04-13T19:05:02.011Z,100169.00
2023-04-13T19:07:32.104Z,100180.00
2023-04-13T19:10:02.415Z,100191.00
2023-04-13T19:12:35.140Z,100204.00
2023-04-13T19:15:05.885Z,100200.00
2023-04-13T19:17:36.593Z,100214.00
2023-04-13T19:20:10.399Z,100222.00
2023-04-13T19:22:40.632Z,100221.00
2023-04-13T19:25:14.746Z,100229.00
2023-04-13T19:27:50.272Z,100238.00
2023-04-13T19:30:21.678Z,100235.00
2023-04-13T19:32:54.412Z,100240.00
2023-04-13T19:35:26.315Z,100242.00
2023-04-13T19:37:56.493Z,100239.00
2023-04-13T19:40:27.460Z,100252.00
2023-04-13T19:43:00.344Z,100253.00
2023-04-13T19:45:30.525Z,100251.00
2023-04-13T19:48:01.231Z,100259.00
2023-04-13T19:50:31.277Z,100248.00
2023-04-13T19:53:01.952Z,100259.00
2023-04-13T19:55:31.988Z,100254.00
2023-04-13T19:58:04.854Z,100263.00
2023-04-13T20:00:35.177Z,100263.00
2023-04-13T20:03:05.615Z,100254.00
2023-04-13T20:05:39.293Z,100263.00
2023-04-13T20:08:09.993Z,100261.00
2023-04-13T20:10:40.348Z,100255.00
2023-04-13T20:13:13.045Z,100254.00
2023-04-13T20:15:43.109Z,100250.00
2023-04-13T20:18:13.329Z,100243.00
2023-04-13T20:20:44.412Z,100241.00
2023-04-13T20:23:14.855Z,100243.00
2023-04-13T20:25:45.268Z,100242.00
2023-04-13T20:28:18.704Z,100243.00
2023-04-13T20:30:49.169Z,100239.00
2023-04-13T20:33:19.325Z,100232.00
2023-04-13T20:35:49.446Z,100235.00
2023-04-13T20:38:19.703Z,100231.00
2023-04-13T20:40:49.924Z,100235.00
2023-04-13T20:43:23.273Z,100227.00
2023-04-13T20:45:53.324Z,100218.00
2023-04-13T20:50:58.897Z,100218.00
2023-04-13T20:53:29.968Z,100210.00
2023-04-13T20:55:59.921Z,100211.00
2023-04-13T20:58:34.095Z,100205.00
2023-04-13T21:01:04.739Z,100207.00
2023-04-13T21:03:35.015Z,100198.00
2023-04-13T21:06:05.415Z,100202.00
2023-04-13T21:08:35.864Z,100203.00
2023-04-13T21:11:06.488Z,100203.00
2023-04-13T21:13:39.396Z,100205.00
2023-04-13T21:16:10.392Z,100208.00
2023-04-13T21:18:41.768Z,100209.00
2023-04-13T21:21:12.207Z,100210.00
2023-04-13T21:23:42.589Z,100214.00
2023-04-13T21:26:12.679Z,100209.00
2023-04-13T21:28:45.238Z,100200.00
2023-04-13T21:31:15.187Z,100201.00
2023-04-13T21:33:45.673Z,100204.00
2023-04-13T21:38:49.080Z,100188.00
2023-04-13T21:41:20.005Z,100193.00
2023-04-13T21:43:52.843Z,100180.00
2023-04-13T21:46:23.153Z,100180.00
2023-04-13T21:48:53.153Z,100184.00
2023-04-13T21:51:23.197Z,100197.00
2023-04-13T21:53:55.255Z,100193.00
2023-04-13T21:56:25.323Z,100191.00
2023-04-13T21:58:58.313Z,100194.00
2023-04-13T22:01:28.483Z,100190.00
2023-04-13T22:03:58.678Z,100195.00
2023-04-13T22:06:29.074Z,100197.00
2023-04-13T22:08:59.259Z,100204.00
2023-04-13T22:11:29.520Z,100202.00
2023-04-13T22:14:02.799Z,100199.00
2023-04-13T22:16:32.743Z,100213.00
2023-04-13T22:19:02.979Z,100212.00
2023-04-13T22:21:33.225Z,100217.00
2023-04-13T22:24:03.169Z,100205.00
2023-04-13T22:26:33.123Z,100216.00
2023-04-13T22:29:05.812Z,100219.00
2023-04-13T22:31:35.947Z,100228.00
2023-04-13T22:34:06.074Z,100224.00
2023-04-13T22:36:36.041Z,100236.00
2023-04-13T22:39:06.135Z,100228.00
2023-04-13T22:41:36.644Z,100224.00
2023-04-13T22:44:09.236Z,100220.00
2023-04-13T22:46:40.690Z,100215.00
2023-04-13T22:49:10.818Z,100223.00
2023-04-13T22:51:41.715Z,100229.00
2023-04-13T22:54:12.015Z,100219.00
2023-04-13T22:56:42.108Z,100215.00
2023-04-13T22:59:16.316Z,100214.00
2023-04-13T23:01:46.656Z,100204.00
2023-04-13T23:04:16.860Z,100203.00
2023-04-13T23:06:47.121Z,100203.00
2023-04-13T23:09:17.114Z,100210.00
2023-04-13T23:11:47.415Z,100207.00
2023-04-13T23:14:20.925Z,100205.00
2023-04-13T23:16:51.214Z,100201.00
2023-04-13T23:19:21.337Z,100196.00
2023-04-13T23:21:51.289Z,100194.00
2023-04-13T23:24:21.230Z,100188.00
2023-04-13T23:26:51.175Z,100183.00
2023-04-13T23:29:23.860Z,100173.00
2023-04-13T23:31:53.889Z,100177.00
2023-04-13T23:34:23.865Z,100173.00
2023-04-13T23:36:53.859Z,100190.00
2023-04-13T23:39:24.114Z,100187.00
2023-04-13T23:41:54.045Z,100177.00
2023-04-13T23:44:26.671Z,100189.00
2023-04-13T23:46:56.787Z,100184.00
2023-04-13T23:49:26.771Z,100186.00
2023-04-13T23:51:56.730Z,100181.00
2023-04-13T23:54:26.788Z,100187.00
2023-04-13T23:56:56.768Z,100181.00
2023-04-13T23:59:29.325Z,100175.00
